sensor_id;sensor_type;location;lat;lon;timestamp;P1;durP1;ratioP1;P2;durP2;ratioP2
39016;SDS011;24784;45.582;5.276;2023-02-08T06:31:44;48.38;;;21.70;;
39016;SDS011;24784;45.582;5.276;2023-02-08T06:34:10;52.55;;;22.17;;
39016;SDS011;24784;45.582;5.276;2023-02-08T06:36:35;50.00;;;23.30;;
39016;SDS011;24784;45.582;5.276;2023-02-08T06:39:01;48.13;;;23.05;;
39016;SDS011;24784;45.582;5.276;2023-02-08T06:41:27;54.38;;;23.73;;
39016;SDS011;24784;45.582;5.276;2023-02-08T06:43:53;54.30;;;24.85;;
39016;SDS011;24784;45.582;5.276;2023-02-08T06:46:18;57.50;;;25.30;;
39016;SDS011;24784;45.582;5.276;2023-02-08T06:48:44;49.13;;;24.00;;
39016;SDS011;24784;45.582;5.276;2023-02-08T06:51:10;50.83;;;22.40;;
39016;SDS011;24784;45.582;5.276;2023-02-08T06:53:35;49.80;;;24.65;;
39016;SDS011;24784;45.582;5.276;2023-02-08T06:56:01;47.20;;;22.67;;
39016;SDS011;24784;45.582;5.276;2023-02-08T06:58:27;46.45;;;23.00;;
39016;SDS011;24784;45.582;5.276;2023-02-08T07:00:53;47.47;;;23.67;;
39016;SDS011;24784;45.582;5.276;2023-02-08T07:03:18;49.03;;;21.73;;
39016;SDS011;24784;45.582;5.276;2023-02-08T07:05:46;46.13;;;22.95;;
39016;SDS011;24784;45.582;5.276;2023-02-08T07:08:12;51.08;;;23.92;;
39016;SDS011;24784;45.582;5.276;2023-02-08T07:10:38;52.00;;;23.33;;
39016;SDS011;24784;45.582;5.276;2023-02-08T07:13:05;51.92;;;24.85;;
39016;SDS011;24784;45.582;5.276;2023-02-08T07:15:31;46.70;;;23.02;;
39016;SDS011;24784;45.582;5.276;2023-02-08T07:17:57;56.95;;;25.75;;
39016;SDS011;24784;45.582;5.276;2023-02-08T07:20:23;62.85;;;29.52;;
39016;SDS011;24784;45.582;5.276;2023-02-08T07:22:49;59.10;;;26.23;;
39016;SDS011;24784;45.582;5.276;2023-02-08T07:25:14;55.47;;;28.48;;
39016;SDS011;24784;45.582;5.276;2023-02-08T07:27:40;65.40;;;29.23;;
39016;SDS011;24784;45.582;5.276;2023-02-08T07:30:06;59.25;;;28.40;;
39016;SDS011;24784;45.582;5.276;2023-02-08T07:32:33;67.80;;;28.45;;
39016;SDS011;24784;45.582;5.276;2023-02-08T07:34:59;73.10;;;32.40;;
39016;SDS011;24784;45.582;5.276;2023-02-08T07:37:24;73.00;;;32.83;;
39016;SDS011;24784;45.582;5.276;2023-02-08T07:39:51;58.28;;;28.17;;
39016;SDS011;24784;45.582;5.276;2023-02-08T07:42:16;57.25;;;27.30;;
39016;SDS011;24784;45.582;5.276;2023-02-08T07:44:42;60.53;;;27.25;;
39016;SDS011;24784;45.582;5.276;2023-02-08T07:47:08;56.50;;;25.52;;
39016;SDS011;24784;45.582;5.276;2023-02-08T07:49:34;54.03;;;26.08;;
39016;SDS011;24784;45.582;5.276;2023-02-08T07:52:00;60.60;;;25.50;;
39016;SDS011;24784;45.582;5.276;2023-02-08T07:54:27;61.22;;;27.60;;
39016;SDS011;24784;45.582;5.276;2023-02-08T07:56:53;58.58;;;25.15;;
39016;SDS011;24784;45.582;5.276;2023-02-08T07:59:19;52.53;;;26.02;;
39016;SDS011;24784;45.582;5.276;2023-02-08T08:01:45;56.25;;;24.80;;
39016;SDS011;24784;45.582;5.276;2023-02-08T08:04:11;51.28;;;24.95;;
39016;SDS011;24784;45.582;5.276;2023-02-08T08:06:37;52.92;;;25.25;;
39016;SDS011;24784;45.582;5.276;2023-02-08T08:09:02;52.75;;;24.35;;
39016;SDS011;24784;45.582;5.276;2023-02-08T08:11:29;54.15;;;24.58;;
39016;SDS011;24784;45.582;5.276;2023-02-08T08:13:55;45.22;;;23.17;;
39016;SDS011;24784;45.582;5.276;2023-02-08T08:16:21;50.40;;;25.30;;
39016;SDS011;24784;45.582;5.276;2023-02-08T08:18:47;50.55;;;23.58;;
39016;SDS011;24784;45.582;5.276;2023-02-08T08:21:12;54.28;;;24.65;;
39016;SDS011;24784;45.582;5.276;2023-02-08T08:23:40;53.75;;;25.70;;
39016;SDS011;24784;45.582;5.276;2023-02-08T08:26:11;52.13;;;25.35;;
39016;SDS011;24784;45.582;5.276;2023-02-08T08:28:39;54.55;;;26.00;;
39016;SDS011;24784;45.582;5.276;2023-02-08T08:31:11;51.55;;;25.38;;
39016;SDS011;24784;45.582;5.276;2023-02-08T08:33:38;52.72;;;25.10;;
39016;SDS011;24784;45.582;5.276;2023-02-08T08:36:04;55.25;;;25.30;;
39016;SDS011;24784;45.582;5.276;2023-02-08T08:38:30;56.90;;;25.55;;
39016;SDS011;24784;45.582;5.276;2023-02-08T08:40:56;57.60;;;26.13;;
39016;SDS011;24784;45.582;5.276;2023-02-08T08:43:22;61.13;;;27.58;;
39016;SDS011;24784;45.582;5.276;2023-02-08T08:45:47;53.60;;;26.33;;
39016;SDS011;24784;45.582;5.276;2023-02-08T08:48:13;51.42;;;25.02;;
39016;SDS011;24784;45.582;5.276;2023-02-08T08:50:39;56.30;;;25.02;;
39016;SDS011;24784;45.582;5.276;2023-02-08T08:53:07;54.15;;;25.70;;
39016;SDS011;24784;45.582;5.276;2023-02-08T08:55:33;60.78;;;28.70;;
39016;SDS011;24784;45.582;5.276;2023-02-08T08:57:59;63.35;;;28.38;;
39016;SDS011;24784;45.582;5.276;2023-02-08T09:00:24;54.50;;;26.90;;
39016;SDS011;24784;45.582;5.276;2023-02-08T09:02:51;58.13;;;27.08;;
39016;SDS011;24784;45.582;5.276;2023-02-08T09:05:17;51.97;;;27.35;;
39016;SDS011;24784;45.582;5.276;2023-02-08T09:07:42;58.75;;;26.70;;
39016;SDS011;24784;45.582;5.276;2023-02-08T09:10:08;57.63;;;26.63;;
39016;SDS011;24784;45.582;5.276;2023-02-08T09:12:34;57.47;;;28.63;;
39016;SDS011;24784;45.582;5.276;2023-02-08T09:15:00;55.13;;;26.00;;
39016;SDS011;24784;45.582;5.276;2023-02-08T09:17:26;57.40;;;27.65;;
39016;SDS011;24784;45.582;5.276;2023-02-08T09:19:51;54.58;;;26.55;;
39016;SDS011;24784;45.582;5.276;2023-02-08T09:22:17;53.55;;;28.20;;
39016;SDS011;24784;45.582;5.276;2023-02-08T09:24:43;50.60;;;26.85;;
39016;SDS011;24784;45.582;5.276;2023-02-08T09:27:09;58.83;;;27.73;;
39016;SDS011;24784;45.582;5.276;2023-02-08T09:29:35;54.78;;;28.50;;
39016;SDS011;24784;45.582;5.276;2023-02-08T09:32:01;51.28;;;26.92;;
39016;SDS011;24784;45.582;5.276;2023-02-08T09:34:26;63.13;;;28.27;;
39016;SDS011;24784;45.582;5.276;2023-02-08T09:36:52;55.03;;;28.75;;
39016;SDS011;24784;45.582;5.276;2023-02-08T09:39:20;65.97;;;30.75;;
39016;SDS011;24784;45.582;5.276;2023-02-08T09:47:37;64.88;;;30.42;;
39016;SDS011;24784;45.582;5.276;2023-02-08T09:52:40;57.83;;;29.73;;
39016;SDS011;24784;45.582;5.276;2023-02-08T09:55:15;56.05;;;30.25;;
39016;SDS011;24784;45.582;5.276;2023-02-08T09:57:45;61.80;;;31.38;;
39016;SDS011;24784;45.582;5.276;2023-02-08T10:00:17;56.33;;;30.33;;
39016;SDS011;24784;45.582;5.276;2023-02-08T10:02:51;62.42;;;30.52;;
39016;SDS011;24784;45.582;5.276;2023-02-08T10:05:22;62.53;;;30.23;;
39016;SDS011;24784;45.582;5.276;2023-02-08T10:07:50;65.18;;;31.33;;
39016;SDS011;24784;45.582;5.276;2023-02-08T10:10:30;67.20;;;32.22;;
39016;SDS011;24784;45.582;5.276;2023-02-08T10:15:57;68.13;;;34.85;;
39016;SDS011;24784;45.582;5.276;2023-02-08T10:21:35;59.15;;;32.75;;
39016;SDS011;24784;45.582;5.276;2023-02-08T10:24:12;67.53;;;33.03;;
39016;SDS011;24784;45.582;5.276;2023-02-08T10:26:53;75.68;;;33.10;;
39016;SDS011;24784;45.582;5.276;2023-02-08T10:35:10;61.08;;;29.73;;
39016;SDS011;24784;45.582;5.276;2023-02-08T10:37:39;58.00;;;32.25;;
39016;SDS011;24784;45.582;5.276;2023-02-08T10:40:18;55.60;;;31.27;;
39016;SDS011;24784;45.582;5.276;2023-02-08T10:42:47;51.80;;;30.02;;
39016;SDS011;24784;45.582;5.276;2023-02-08T10:45:30;56.00;;;29.77;;
39016;SDS011;24784;45.582;5.276;2023-02-08T10:48:03;49.75;;;29.08;;
39016;SDS011;24784;45.582;5.276;2023-02-08T10:50:41;50.08;;;29.85;;
39016;SDS011;24784;45.582;5.276;2023-02-08T10:53:15;60.45;;;29.85;;
39016;SDS011;24784;45.582;5.276;2023-02-08T10:55:42;59.97;;;31.00;;
39016;SDS011;24784;45.582;5.276;2023-02-08T10:58:12;53.75;;;28.25;;
39016;SDS011;24784;45.582;5.276;2023-02-08T11:00:43;47.03;;;26.55;;
39016;SDS011;24784;45.582;5.276;2023-02-08T11:03:17;43.63;;;26.48;;
39016;SDS011;24784;45.582;5.276;2023-02-08T11:05:46;47.38;;;26.60;;
39016;SDS011;24784;45.582;5.276;2023-02-08T11:08:13;51.80;;;26.08;;
39016;SDS011;24784;45.582;5.276;2023-02-08T11:13:25;45.40;;;26.02;;
39016;SDS011;24784;45.582;5.276;2023-02-08T11:15:58;40.35;;;25.20;;
39016;SDS011;24784;45.582;5.276;2023-02-08T11:21:21;43.28;;;25.98;;
39016;SDS011;24784;45.582;5.276;2023-02-08T11:26:47;49.17;;;26.00;;
39016;SDS011;24784;45.582;5.276;2023-02-08T11:29:18;44.70;;;25.08;;
39016;SDS011;24784;45.582;5.276;2023-02-08T11:36:58;45.85;;;25.90;;
39016;SDS011;24784;45.582;5.276;2023-02-08T11:41:57;41.70;;;24.33;;
39016;SDS011;24784;45.582;5.276;2023-02-08T11:46:58;42.20;;;23.83;;
39016;SDS011;24784;45.582;5.276;2023-02-08T11:49:31;44.28;;;25.33;;
39016;SDS011;24784;45.582;5.276;2023-02-08T11:52:05;39.97;;;23.65;;
39016;SDS011;24784;45.582;5.276;2023-02-08T11:54:44;41.22;;;23.85;;
39016;SDS011;24784;45.582;5.276;2023-02-08T11:57:14;42.47;;;23.42;;
39016;SDS011;24784;45.582;5.276;2023-02-08T11:59:43;40.95;;;24.20;;
39016;SDS011;24784;45.582;5.276;2023-02-08T12:02:31;42.50;;;23.50;;
39016;SDS011;24784;45.582;5.276;2023-02-08T12:04:59;41.90;;;23.05;;
39016;SDS011;24784;45.582;5.276;2023-02-08T12:12:56;38.72;;;21.88;;
39016;SDS011;24784;45.582;5.276;2023-02-08T12:15:48;33.05;;;18.38;;
39016;SDS011;24784;45.582;5.276;2023-02-08T12:21:45;36.58;;;20.25;;
39016;SDS011;24784;45.582;5.276;2023-02-08T12:24:23;36.33;;;18.88;;
39016;SDS011;24784;45.582;5.276;2023-02-08T12:32:22;12.85;;;6.45;;
39016;SDS011;24784;45.582;5.276;2023-02-08T12:37:44;12.25;;;6.70;;
39016;SDS011;24784;45.582;5.276;2023-02-08T12:43:40;12.40;;;6.00;;
39016;SDS011;24784;45.582;5.276;2023-02-08T12:49:10;12.18;;;6.57;;
39016;SDS011;24784;45.582;5.276;2023-02-08T12:54:41;12.75;;;5.90;;
39016;SDS011;24784;45.582;5.276;2023-02-08T12:57:13;13.40;;;6.18;;
39016;SDS011;24784;45.582;5.276;2023-02-08T13:00:04;12.55;;;6.38;;
39016;SDS011;24784;45.582;5.276;2023-02-08T13:05:41;15.50;;;5.30;;
39016;SDS011;24784;45.582;5.276;2023-02-08T13:08:15;13.35;;;5.30;;
39016;SDS011;24784;45.582;5.276;2023-02-08T13:10:57;10.15;;;5.45;;
39016;SDS011;24784;45.582;5.276;2023-02-08T13:13:32;11.55;;;5.28;;
39016;SDS011;24784;45.582;5.276;2023-02-08T13:16:02;10.13;;;5.97;;
39016;SDS011;24784;45.582;5.276;2023-02-08T13:18:35;15.47;;;6.00;;
39016;SDS011;24784;45.582;5.276;2023-02-08T13:21:14;13.32;;;5.75;;
39016;SDS011;24784;45.582;5.276;2023-02-08T13:23:44;16.42;;;8.38;;
39016;SDS011;24784;45.582;5.276;2023-02-08T13:26:26;13.40;;;6.85;;
39016;SDS011;24784;45.582;5.276;2023-02-08T13:28:56;18.27;;;7.68;;
39016;SDS011;24784;45.582;5.276;2023-02-08T13:31:25;14.90;;;7.00;;
39016;SDS011;24784;45.582;5.276;2023-02-08T13:33:58;12.73;;;6.90;;
39016;SDS011;24784;45.582;5.276;2023-02-08T13:36:36;15.32;;;7.78;;
39016;SDS011;24784;45.582;5.276;2023-02-08T13:39:47;13.80;;;7.15;;
39016;SDS011;24784;45.582;5.276;2023-02-08T13:42:17;14.35;;;8.13;;
39016;SDS011;24784;45.582;5.276;2023-02-08T13:44:52;12.48;;;6.53;;
39016;SDS011;24784;45.582;5.276;2023-02-08T13:47:24;18.23;;;8.70;;
39016;SDS011;24784;45.582;5.276;2023-02-08T13:49:52;14.73;;;8.32;;
39016;SDS011;24784;45.582;5.276;2023-02-08T13:57:55;17.40;;;10.90;;
39016;SDS011;24784;45.582;5.276;2023-02-08T14:00:24;34.75;;;20.00;;
39016;SDS011;24784;45.582;5.276;2023-02-08T14:05:46;24.02;;;12.25;;
39016;SDS011;24784;45.582;5.276;2023-02-08T14:11:00;11.77;;;6.95;;
39016;SDS011;24784;45.582;5.276;2023-02-08T14:13:58;14.38;;;7.15;;
39016;SDS011;24784;45.582;5.276;2023-02-08T14:19:03;10.77;;;6.10;;
39016;SDS011;24784;45.582;5.276;2023-02-08T14:22:46;8.38;;;5.85;;
39016;SDS011;24784;45.582;5.276;2023-02-08T14:32:34;10.07;;;5.03;;
39016;SDS011;24784;45.582;5.276;2023-02-08T14:35:07;12.30;;;5.40;;
39016;SDS011;24784;45.582;5.276;2023-02-08T14:37:45;11.60;;;6.15;;
39016;SDS011;24784;45.582;5.276;2023-02-08T14:43:00;8.48;;;4.95;;
39016;SDS011;24784;45.582;5.276;2023-02-08T14:45:35;10.55;;;6.50;;
39016;SDS011;24784;45.582;5.276;2023-02-08T14:53:24;10.65;;;4.53;;
39016;SDS011;24784;45.582;5.276;2023-02-08T14:56:12;6.15;;;4.20;;
39016;SDS011;24784;45.582;5.276;2023-02-08T14:58:57;18.33;;;7.25;;
39016;SDS011;24784;45.582;5.276;2023-02-08T15:01:31;13.35;;;4.85;;
39016;SDS011;24784;45.582;5.276;2023-02-08T15:03:59;8.50;;;4.63;;
39016;SDS011;24784;45.582;5.276;2023-02-08T15:06:41;13.73;;;5.38;;
39016;SDS011;24784;45.582;5.276;2023-02-08T15:11:56;5.47;;;3.80;;
39016;SDS011;24784;45.582;5.276;2023-02-08T15:14:33;10.43;;;4.43;;
39016;SDS011;24784;45.582;5.276;2023-02-08T15:17:00;8.38;;;4.15;;
39016;SDS011;24784;45.582;5.276;2023-02-08T15:19:30;6.72;;;4.45;;
39016;SDS011;24784;45.582;5.276;2023-02-08T15:22:25;6.63;;;4.07;;
39016;SDS011;24784;45.582;5.276;2023-02-08T15:25:00;10.43;;;4.97;;
39016;SDS011;24784;45.582;5.276;2023-02-08T15:27:44;20.90;;;8.65;;
39016;SDS011;24784;45.582;5.276;2023-02-08T15:30:26;10.15;;;5.03;;
39016;SDS011;24784;45.582;5.276;2023-02-08T15:33:00;15.30;;;4.97;;
39016;SDS011;24784;45.582;5.276;2023-02-08T15:35:28;10.45;;;4.95;;
39016;SDS011;24784;45.582;5.276;2023-02-08T15:37:57;6.03;;;3.88;;
39016;SDS011;24784;45.582;5.276;2023-02-08T15:42:54;7.85;;;4.38;;
39016;SDS011;24784;45.582;5.276;2023-02-08T15:45:28;7.07;;;4.35;;
39016;SDS011;24784;45.582;5.276;2023-02-08T15:47:54;9.07;;;4.32;;
39016;SDS011;24784;45.582;5.276;2023-02-08T15:50:21;7.00;;;4.30;;
39016;SDS011;24784;45.582;5.276;2023-02-08T15:52:51;9.80;;;4.20;;
39016;SDS011;24784;45.582;5.276;2023-02-08T15:55:23;12.88;;;4.65;;
39016;SDS011;24784;45.582;5.276;2023-02-08T15:57:58;7.22;;;4.40;;
39016;SDS011;24784;45.582;5.276;2023-02-08T16:00:31;9.68;;;5.25;;
39016;SDS011;24784;45.582;5.276;2023-02-08T16:03:01;11.88;;;6.00;;
39016;SDS011;24784;45.582;5.276;2023-02-08T16:05:33;12.67;;;6.27;;
39016;SDS011;24784;45.582;5.276;2023-02-08T16:08:17;12.75;;;5.72;;
39016;SDS011;24784;45.582;5.276;2023-02-08T16:10:48;12.35;;;4.90;;
39016;SDS011;24784;45.582;5.276;2023-02-08T16:13:25;14.02;;;5.63;;
39016;SDS011;24784;45.582;5.276;2023-02-08T16:15:54;14.25;;;5.50;;
39016;SDS011;24784;45.582;5.276;2023-02-08T16:18:38;12.77;;;5.47;;
39016;SDS011;24784;45.582;5.276;2023-02-08T16:21:50;19.77;;;6.22;;
39016;SDS011;24784;45.582;5.276;2023-02-08T16:23:58;21.75;;;5.85;;
39016;SDS011;24784;45.582;5.276;2023-02-08T16:26:34;20.55;;;6.88;;
39016;SDS011;24784;45.582;5.276;2023-02-08T16:29:19;16.98;;;7.10;;
39016;SDS011;24784;45.582;5.276;2023-02-08T16:31:54;23.33;;;8.82;;
39016;SDS011;24784;45.582;5.276;2023-02-08T16:34:32;29.65;;;10.70;;
39016;SDS011;24784;45.582;5.276;2023-02-08T16:36:59;18.27;;;9.43;;
39016;SDS011;24784;45.582;5.276;2023-02-08T16:44:32;13.30;;;5.82;;
39016;SDS011;24784;45.582;5.276;2023-02-08T16:47:00;13.75;;;6.35;;
39016;SDS011;24784;45.582;5.276;2023-02-08T16:49:47;13.10;;;6.43;;
39016;SDS011;24784;45.582;5.276;2023-02-08T16:52:13;14.48;;;6.75;;
39016;SDS011;24784;45.582;5.276;2023-02-08T16:54:39;20.17;;;11.15;;
39016;SDS011;24784;45.582;5.276;2023-02-08T16:57:05;15.98;;;8.75;;
39016;SDS011;24784;45.582;5.276;2023-02-08T16:59:32;21.00;;;10.82;;
39016;SDS011;24784;45.582;5.276;2023-02-08T17:01:58;23.45;;;10.65;;
39016;SDS011;24784;45.582;5.276;2023-02-08T17:04:24;15.93;;;8.48;;
39016;SDS011;24784;45.582;5.276;2023-02-08T17:06:50;19.35;;;9.88;;
39016;SDS011;24784;45.582;5.276;2023-02-08T17:09:16;15.75;;;9.10;;
39016;SDS011;24784;45.582;5.276;2023-02-08T17:11:42;14.52;;;7.43;;
39016;SDS011;24784;45.582;5.276;2023-02-08T17:14:07;14.45;;;6.18;;
39016;SDS011;24784;45.582;5.276;2023-02-08T17:16:34;14.98;;;6.10;;
39016;SDS011;24784;45.582;5.276;2023-02-08T17:19:02;13.48;;;6.38;;
39016;SDS011;24784;45.582;5.276;2023-02-08T17:21:28;16.38;;;6.53;;
39016;SDS011;24784;45.582;5.276;2023-02-08T17:23:55;14.48;;;6.70;;
39016;SDS011;24784;45.582;5.276;2023-02-08T17:26:22;15.63;;;7.05;;
39016;SDS011;24784;45.582;5.276;2023-02-08T17:28:53;21.95;;;10.57;;
39016;SDS011;24784;45.582;5.276;2023-02-08T17:31:20;80.35;;;24.30;;
39016;SDS011;24784;45.582;5.276;2023-02-08T17:33:46;84.53;;;25.85;;
39016;SDS011;24784;45.582;5.276;2023-02-08T17:36:14;64.03;;;21.08;;
39016;SDS011;24784;45.582;5.276;2023-02-08T17:38:41;30.65;;;11.95;;
39016;SDS011;24784;45.582;5.276;2023-02-08T17:41:08;33.70;;;14.45;;
39016;SDS011;24784;45.582;5.276;2023-02-08T17:43:38;29.98;;;11.93;;
39016;SDS011;24784;45.582;5.276;2023-02-08T17:46:37;24.40;;;11.45;;
39016;SDS011;24784;45.582;5.276;2023-02-08T17:48:56;21.52;;;8.57;;
39016;SDS011;24784;45.582;5.276;2023-02-08T17:51:28;21.73;;;8.15;;
39016;SDS011;24784;45.582;5.276;2023-02-08T17:53:54;18.38;;;7.72;;
39016;SDS011;24784;45.582;5.276;2023-02-08T17:56:21;16.55;;;8.77;;
39016;SDS011;24784;45.582;5.276;2023-02-08T17:58:48;22.45;;;9.27;;
39016;SDS011;24784;45.582;5.276;2023-02-08T18:01:17;27.23;;;12.35;;
39016;SDS011;24784;45.582;5.276;2023-02-08T18:03:46;30.80;;;13.30;;
39016;SDS011;24784;45.582;5.276;2023-02-08T18:06:13;32.40;;;14.30;;
39016;SDS011;24784;45.582;5.276;2023-02-08T18:08:39;34.03;;;15.10;;
39016;SDS011;24784;45.582;5.276;2023-02-08T18:11:06;26.67;;;13.82;;
39016;SDS011;24784;45.582;5.276;2023-02-08T18:13:34;24.80;;;12.85;;
39016;SDS011;24784;45.582;5.276;2023-02-08T18:16:11;25.10;;;10.55;;
39016;SDS011;24784;45.582;5.276;2023-02-08T18:18:39;19.15;;;9.65;;
39016;SDS011;24784;45.582;5.276;2023-02-08T18:21:09;23.60;;;10.57;;
39016;SDS011;24784;45.582;5.276;2023-02-08T18:23:35;22.58;;;10.75;;
39016;SDS011;24784;45.582;5.276;2023-02-08T18:26:02;26.23;;;12.23;;
39016;SDS011;24784;45.582;5.276;2023-02-08T18:28:31;28.52;;;13.23;;
39016;SDS011;24784;45.582;5.276;2023-02-08T18:31:01;30.48;;;14.27;;
39016;SDS011;24784;45.582;5.276;2023-02-08T18:33:31;26.75;;;14.05;;
39016;SDS011;24784;45.582;5.276;2023-02-08T18:35:57;29.73;;;14.95;;
39016;SDS011;24784;45.582;5.276;2023-02-08T18:38:24;34.83;;;13.50;;
39016;SDS011;24784;45.582;5.276;2023-02-08T18:40:50;28.95;;;13.73;;
39016;SDS011;24784;45.582;5.276;2023-02-08T18:43:17;29.40;;;14.10;;
39016;SDS011;24784;45.582;5.276;2023-02-08T18:45:43;30.35;;;14.38;;
39016;SDS011;24784;45.582;5.276;2023-02-08T18:48:10;31.48;;;15.98;;
39016;SDS011;24784;45.582;5.276;2023-02-08T18:50:36;35.63;;;15.13;;
39016;SDS011;24784;45.582;5.276;2023-02-08T18:53:02;33.00;;;14.13;;
39016;SDS011;24784;45.582;5.276;2023-02-08T18:55:34;32.22;;;15.32;;
39016;SDS011;24784;45.582;5.276;2023-02-08T18:58:00;32.53;;;14.98;;
39016;SDS011;24784;45.582;5.276;2023-02-08T19:00:26;35.95;;;18.63;;
39016;SDS011;24784;45.582;5.276;2023-02-08T19:02:52;39.75;;;17.90;;
39016;SDS011;24784;45.582;5.276;2023-02-08T19:05:17;30.15;;;15.57;;
39016;SDS011;24784;45.582;5.276;2023-02-08T19:07:52;28.83;;;14.40;;
39016;SDS011;24784;45.582;5.276;2023-02-08T19:10:18;23.40;;;12.65;;
39016;SDS011;24784;45.582;5.276;2023-02-08T19:12:43;35.58;;;14.35;;
39016;SDS011;24784;45.582;5.276;2023-02-08T19:15:09;32.88;;;18.50;;
39016;SDS011;24784;45.582;5.276;2023-02-08T19:17:35;38.20;;;20.83;;
39016;SDS011;24784;45.582;5.276;2023-02-08T19:20:01;40.78;;;19.13;;
39016;SDS011;24784;45.582;5.276;2023-02-08T19:22:27;34.92;;;18.20;;
39016;SDS011;24784;45.582;5.276;2023-02-08T19:24:52;33.42;;;17.17;;
39016;SDS011;24784;45.582;5.276;2023-02-08T19:27:18;34.80;;;15.45;;
39016;SDS011;24784;45.582;5.276;2023-02-08T19:29:44;31.23;;;15.05;;
39016;SDS011;24784;45.582;5.276;2023-02-08T19:32:10;27.52;;;13.93;;
39016;SDS011;24784;45.582;5.276;2023-02-08T19:34:36;27.08;;;14.75;;
39016;SDS011;24784;45.582;5.276;2023-02-08T19:37:02;25.48;;;14.55;;
39016;SDS011;24784;45.582;5.276;2023-02-08T19:39:28;26.90;;;13.77;;
39016;SDS011;24784;45.582;5.276;2023-02-08T19:41:54;31.67;;;14.27;;
39016;SDS011;24784;45.582;5.276;2023-02-08T19:44:22;28.92;;;13.68;;
39016;SDS011;24784;45.582;5.276;2023-02-08T19:46:52;27.80;;;14.90;;
39016;SDS011;24784;45.582;5.276;2023-02-08T19:49:19;27.85;;;15.30;;
39016;SDS011;24784;45.582;5.276;2023-02-08T19:51:46;28.30;;;16.25;;
39016;SDS011;24784;45.582;5.276;2023-02-08T19:54:13;27.40;;;14.82;;
39016;SDS011;24784;45.582;5.276;2023-02-08T19:56:41;26.33;;;14.20;;
39016;SDS011;24784;45.582;5.276;2023-02-08T19:59:17;27.73;;;14.80;;
39016;SDS011;24784;45.582;5.276;2023-02-08T20:01:44;27.58;;;14.75;;
39016;SDS011;24784;45.582;5.276;2023-02-08T20:04:11;25.88;;;15.52;;
39016;SDS011;24784;45.582;5.276;2023-02-08T20:06:37;30.25;;;17.20;;
39016;SDS011;24784;45.582;5.276;2023-02-08T20:09:04;30.02;;;16.30;;
39016;SDS011;24784;45.582;5.276;2023-02-08T20:11:32;31.27;;;17.10;;
39016;SDS011;24784;45.582;5.276;2023-02-08T20:14:01;33.67;;;16.98;;
39016;SDS011;24784;45.582;5.276;2023-02-08T20:16:36;31.00;;;17.60;;
39016;SDS011;24784;45.582;5.276;2023-02-08T20:21:42;30.45;;;16.35;;
39016;SDS011;24784;45.582;5.276;2023-02-08T20:24:08;30.98;;;15.60;;
39016;SDS011;24784;45.582;5.276;2023-02-08T20:26:35;32.67;;;16.63;;
39016;SDS011;24784;45.582;5.276;2023-02-08T20:29:04;32.72;;;16.55;;
39016;SDS011;24784;45.582;5.276;2023-02-08T20:31:32;31.63;;;17.02;;
39016;SDS011;24784;45.582;5.276;2023-02-08T20:34:03;31.92;;;17.63;;
39016;SDS011;24784;45.582;5.276;2023-02-08T20:36:32;28.70;;;15.23;;
39016;SDS011;24784;45.582;5.276;2023-02-08T20:39:05;28.73;;;14.73;;
39016;SDS011;24784;45.582;5.276;2023-02-08T20:41:32;25.65;;;14.30;;
39016;SDS011;24784;45.582;5.276;2023-02-08T20:43:58;25.88;;;14.00;;
39016;SDS011;24784;45.582;5.276;2023-02-08T20:46:28;31.38;;;14.43;;
39016;SDS011;24784;45.582;5.276;2023-02-08T20:48:57;26.65;;;15.43;;
39016;SDS011;24784;45.582;5.276;2023-02-08T20:51:24;29.73;;;15.23;;
39016;SDS011;24784;45.582;5.276;2023-02-08T20:53:50;29.25;;;16.52;;
39016;SDS011;24784;45.582;5.276;2023-02-08T20:56:20;32.05;;;16.25;;
39016;SDS011;24784;45.582;5.276;2023-02-08T20:58:50;28.85;;;16.52;;
39016;SDS011;24784;45.582;5.276;2023-02-08T21:01:18;33.53;;;16.92;;
39016;SDS011;24784;45.582;5.276;2023-02-08T21:03:47;34.30;;;17.42;;
39016;SDS011;24784;45.582;5.276;2023-02-08T21:06:14;45.05;;;21.58;;
39016;SDS011;24784;45.582;5.276;2023-02-08T21:08:41;48.63;;;22.98;;
39016;SDS011;24784;45.582;5.276;2023-02-08T21:11:08;55.75;;;24.52;;
39016;SDS011;24784;45.582;5.276;2023-02-08T21:13:34;55.15;;;24.75;;
39016;SDS011;24784;45.582;5.276;2023-02-08T21:16:06;50.92;;;24.95;;
39016;SDS011;24784;45.582;5.276;2023-02-08T21:18:33;46.50;;;23.02;;
39016;SDS011;24784;45.582;5.276;2023-02-08T21:20:58;44.33;;;23.05;;
39016;SDS011;24784;45.582;5.276;2023-02-08T21:23:25;55.38;;;23.25;;
39016;SDS011;24784;45.582;5.276;2023-02-08T21:25:51;50.00;;;23.65;;
39016;SDS011;24784;45.582;5.276;2023-02-08T21:28:17;41.55;;;21.50;;
39016;SDS011;24784;45.582;5.276;2023-02-08T21:30:43;50.42;;;23.80;;
39016;SDS011;24784;45.582;5.276;2023-02-08T21:33:09;50.53;;;23.52;;
39016;SDS011;24784;45.582;5.276;2023-02-08T21:35:35;37.90;;;21.58;;
39016;SDS011;24784;45.582;5.276;2023-02-08T21:38:01;42.80;;;20.38;;
39016;SDS011;24784;45.582;5.276;2023-02-08T21:40:27;42.00;;;20.75;;
39016;SDS011;24784;45.582;5.276;2023-02-08T21:42:53;38.75;;;19.60;;
39016;SDS011;24784;45.582;5.276;2023-02-08T21:45:19;41.92;;;20.38;;
39016;SDS011;24784;45.582;5.276;2023-02-08T22:47:48;36.13;;;16.88;;
39016;SDS011;24784;45.582;5.276;2023-02-08T22:50:14;35.33;;;17.27;;
39016;SDS011;24784;45.582;5.276;2023-02-08T22:52:40;40.60;;;18.15;;
39016;SDS011;24784;45.582;5.276;2023-02-08T22:55:05;40.05;;;17.80;;
39016;SDS011;24784;45.582;5.276;2023-02-08T22:57:32;32.33;;;16.67;;
39016;SDS011;24784;45.582;5.276;2023-02-08T22:59:59;38.25;;;16.55;;
39016;SDS011;24784;45.582;5.276;2023-02-08T23:02:25;41.25;;;18.67;;
39016;SDS011;24784;45.582;5.276;2023-02-08T23:04:50;36.40;;;17.83;;
39016;SDS011;24784;45.582;5.276;2023-02-08T23:07:17;36.92;;;17.13;;
39016;SDS011;24784;45.582;5.276;2023-02-08T23:09:43;40.15;;;18.90;;
39016;SDS011;24784;45.582;5.276;2023-02-08T23:12:09;38.70;;;17.42;;
39016;SDS011;24784;45.582;5.276;2023-02-08T23:14:35;39.28;;;18.20;;
39016;SDS011;24784;45.582;5.276;2023-02-08T23:17:01;37.53;;;19.42;;
39016;SDS011;24784;45.582;5.276;2023-02-08T23:19:27;43.83;;;17.85;;
39016;SDS011;24784;45.582;5.276;2023-02-08T23:21:56;44.53;;;19.17;;
39016;SDS011;24784;45.582;5.276;2023-02-08T23:24:23;40.63;;;19.77;;
39016;SDS011;24784;45.582;5.276;2023-02-08T23:26:49;44.88;;;20.02;;
39016;SDS011;24784;45.582;5.276;2023-02-08T23:29:15;40.92;;;20.23;;
39016;SDS011;24784;45.582;5.276;2023-02-08T23:31:40;38.50;;;19.35;;
39016;SDS011;24784;45.582;5.276;2023-02-08T23:34:06;42.40;;;19.23;;
39016;SDS011;24784;45.582;5.276;2023-02-08T23:36:32;36.67;;;18.38;;
39016;SDS011;24784;45.582;5.276;2023-02-08T23:38:57;41.85;;;19.77;;
39016;SDS011;24784;45.582;5.276;2023-02-08T23:41:24;40.60;;;17.55;;
39016;SDS011;24784;45.582;5.276;2023-02-08T23:43:50;41.17;;;18.23;;
39016;SDS011;24784;45.582;5.276;2023-02-08T23:46:21;36.95;;;18.08;;
39016;SDS011;24784;45.582;5.276;2023-02-08T23:48:49;43.30;;;19.42;;
39016;SDS011;24784;45.582;5.276;2023-02-08T23:51:16;37.70;;;17.65;;
39016;SDS011;24784;45.582;5.276;2023-02-08T23:53:43;39.08;;;17.67;;
39016;SDS011;24784;45.582;5.276;2023-02-08T23:56:22;41.63;;;17.70;;
39016;SDS011;24784;45.582;5.276;2023-02-08T23:58:54;35.00;;;17.27;;
